KAWM/AWM METAR and TAF weather

Enter ICAO airport designator
Station Type Date Time Source
KAWM METAR 2022/01/26 06:53 UTC NOAA

KAWM 260653Z AUTO 01010KT 10SM CLR M04/M11 A3042 RMK AO2 SLP303 T10391111


Station Type Date Time Source
KAWM Decoded METAR 2022/01/26 06:53 UTC NOAA

WEST MEMPHIS MUNICIPAL AIRPORT, AR, United States (KAWM) 35-08N 090-14W
Jan 26, 2022 - 01:53 AM EST / 2022.01.26 0653 UTC
Wind: from the N (010 degrees) at 12 MPH (10 KT):0
Visibility: 10 mile(s):0
Sky conditions: clear
Temperature: 25.0 F (-3.9 C)
Windchill: 14 F (-10 C):1
Dew Point: 12.0 F (-11.1 C)
Relative Humidity: 57%
Pressure (altimeter): 30.42 in. Hg (1030 hPa)
ob: KAWM 260653Z AUTO 01010KT 10SM CLR M04/M11 A3042 RMK AO2 SLP303 T10391111
cycle: 7

Station Type Date Time Source
KAWM TAF UTC NOAA

Error!

Example: see airport list